»·PEaware :: DAL708 KABQ-KDEN

DAL708 :: KABQ-KDEN

FLIGHT INFORMATION

Flight Status: Arrived
Operator:
Delta Air Lines
More flights by this operator :: More flights under this callsign
Pilot: Ben F. (2808)
Aircraft: BOEING 727-200
(B722)
More flights by this aircraft type
Origin: KABQ Albuquerque Intl Sunport
United States
Destination: KDEN Denver Intl
United States
More flights between these airports :: More routes between these airports
Route: +ABQ3 ALS LARKS9
File this flight plan on PilotEdge
Remarks:
Altitude:
(Current/Filed)
31,000ft
Speed:
(Current/Filed)
485kts
Departed: 07-Oct-18 07:34 PM
Arrived: 07-Oct-18 08:24 PM
Distance/Time
Traveled:
303nm/0:50
Distance/Time
To Go:
Arrived

Flight Plot

Page will automatically refresh every two minutes.

Flight plan parsing failed; only flown route is shown


Map Options




Map Legend


Flown Route
Filed Route
Departure Airport
Arrival Airport
Navaid (VOR, NDB)
Fix

Horizontal Profiles

Position Reports

Time Latitude Longitude Heading Altitude Ground
Speed
07-Oct-18 19:13 35.047807 -106.618626 153 5366ft 0kts
07-Oct-18 19:14 35.047807 -106.618626 153 5366ft 0kts
07-Oct-18 19:15 35.047807 -106.618626 153 5366ft 0kts
07-Oct-18 19:16 35.047807 -106.618626 153 5366ft 0kts
07-Oct-18 19:17 35.047807 -106.618626 153 5366ft 0kts
07-Oct-18 19:18 35.047807 -106.618626 153 5366ft 0kts
07-Oct-18 19:19 35.047807 -106.618626 153 5366ft 0kts
07-Oct-18 19:20 35.047807 -106.618626 153 5366ft 0kts
07-Oct-18 19:21 35.047807 -106.618626 153 5366ft 0kts
07-Oct-18 19:22 35.047807 -106.618626 153 5366ft 0kts
07-Oct-18 19:23 35.047807 -106.618626 153 5366ft 0kts
07-Oct-18 19:24 35.048138 -106.618797 183 5366ft 2kts
07-Oct-18 19:25 35.048420 -106.618383 270 5366ft 1kts
07-Oct-18 19:26 35.048420 -106.618375 270 5366ft 0kts
07-Oct-18 19:27 35.048420 -106.618375 270 5366ft 0kts
07-Oct-18 19:28 35.048344 -106.619179 244 5366ft 6kts
07-Oct-18 19:29 35.046856 -106.619578 179 5366ft 0kts
07-Oct-18 19:30 35.045566 -106.615163 89 5366ft 26kts
07-Oct-18 19:31 35.045768 -106.606132 90 5366ft 29kts
07-Oct-18 19:32 35.045849 -106.596153 90 5366ft 29kts
07-Oct-18 19:33 35.045767 -106.586086 90 5366ft 29kts
07-Oct-18 19:34 35.045687 -106.576470 97 5366ft 15kts
07-Oct-18 19:35 35.044077 -106.576831 270 5366ft 0kts
07-Oct-18 19:36 35.044141 -106.585837 271 5366ft 113kts
07-Oct-18 19:37 35.045335 -106.638461 282 6814ft 163kts
07-Oct-18 19:38 35.054557 -106.699066 281 7924ft 216kts
07-Oct-18 19:39 35.095073 -106.761797 350 9673ft 301kts
07-Oct-18 19:40 35.179858 -106.731167 21 11849ft 342kts
07-Oct-18 19:41 35.273413 -106.689909 20 14050ft 372kts
07-Oct-18 19:42 35.373027 -106.648959 19 16306ft 388kts
07-Oct-18 19:43 35.477000 -106.606170 20 18314ft 404kts
07-Oct-18 19:44 35.584335 -106.561854 20 20059ft 418kts
07-Oct-18 19:45 35.696169 -106.515546 20 21596ft 432kts
07-Oct-18 19:46 35.810979 -106.467860 20 23023ft 443kts
07-Oct-18 19:47 35.921928 -106.421642 20 24225ft 454kts
07-Oct-18 19:48 36.039617 -106.372461 20 25357ft 463kts
07-Oct-18 19:49 36.158920 -106.322459 21 26360ft 471kts
07-Oct-18 19:50 36.282572 -106.270449 21 27265ft 479kts
07-Oct-18 19:51 36.407879 -106.217572 21 28135ft 486kts
07-Oct-18 19:52 36.536075 -106.163286 21 28933ft 492kts
07-Oct-18 19:53 36.665305 -106.108359 21 29655ft 498kts
07-Oct-18 19:54 36.795789 -106.052724 21 30613ft 497kts
07-Oct-18 19:55 36.926819 -105.996616 21 30996ft 509kts
07-Oct-18 19:56 37.062666 -105.938250 21 30947ft 530kts
07-Oct-18 19:57 37.198582 -105.879629 21 30910ft 547kts
07-Oct-18 19:58 37.344852 -105.823937 3 30908ft 564kts
07-Oct-18 19:59 37.499986 -105.842506 351 30913ft 571kts
07-Oct-18 20:00 37.657002 -105.868606 350 30916ft 575kts
07-Oct-18 20:01 37.814820 -105.895152 350 30923ft 576kts
07-Oct-18 20:02 37.970035 -105.921197 351 30948ft 576kts
07-Oct-18 20:03 38.116598 -105.945411 351 30926ft 577kts
07-Oct-18 20:04 38.254017 -105.968145 351 31028ft 570kts
07-Oct-18 20:05 38.407033 -105.993870 350 31163ft 563kts
07-Oct-18 20:06 38.558804 -106.020087 350 29962ft 549kts
07-Oct-18 20:07 38.706513 -106.043230 1 27876ft 533kts
07-Oct-18 20:08 38.828406 -105.963124 50 25655ft 498kts
07-Oct-18 20:09 38.917301 -105.833488 54 23326ft 483kts
07-Oct-18 20:10 39.001263 -105.704241 54 21179ft 466kts
07-Oct-18 20:11 39.081929 -105.579170 54 19053ft 450kts
07-Oct-18 20:12 39.149581 -105.473669 53 17242ft 434kts
07-Oct-18 20:13 39.218512 -105.365098 54 17087ft 359kts
07-Oct-18 20:14 39.276021 -105.274449 55 17072ft 337kts
07-Oct-18 20:15 39.333787 -105.179784 61 16930ft 332kts
07-Oct-18 20:16 39.386252 -105.086994 58 15847ft 318kts
07-Oct-18 20:17 39.438311 -104.994348 57 14178ft 324kts
07-Oct-18 20:18 39.488526 -104.903520 57 12467ft 306kts
07-Oct-18 20:19 39.536423 -104.814583 57 10707ft 293kts
07-Oct-18 20:20 39.579520 -104.728308 57 8855ft 294kts
07-Oct-18 20:21 39.632797 -104.660583 10 7960ft 244kts
07-Oct-18 20:22 39.694711 -104.661946 354 7980ft 216kts
07-Oct-18 20:23 39.751154 -104.661669 4 7020ft 186kts
07-Oct-18 20:24 39.794842 -104.661005 6 6143ft 147kts
07-Oct-18 20:25 39.834638 -104.660485 3 5443ft 119kts
07-Oct-18 20:26 39.849164 -104.661678 328 5443ft 0kts
07-Oct-18 20:27 39.850434 -104.662366 353 5443ft 12kts
07-Oct-18 20:28 39.855843 -104.663814 262 5443ft 13kts
07-Oct-18 20:29 39.855954 -104.668210 269 5443ft 15kts
07-Oct-18 20:30 39.854792 -104.673905 228 5443ft 11kts
07-Oct-18 20:31 39.854527 -104.674260 223 5443ft 0kts
07-Oct-18 20:32 39.854527 -104.674260 223 5443ft 0kts
07-Oct-18 20:33 39.854527 -104.674260 223 5443ft 0kts
07-Oct-18 20:34 39.854527 -104.674260 223 5443ft 0kts
07-Oct-18 20:35 39.854527 -104.674260 223 5443ft 0kts
07-Oct-18 20:36 39.854527 -104.674260 223 5443ft 0kts
07-Oct-18 20:37 39.854527 -104.674260 223 5443ft 0kts
07-Oct-18 20:38 39.854527 -104.674260 223 5443ft 0kts
07-Oct-18 20:39 39.854527 -104.674260 223 5443ft 0kts

Navigation Log

Ident Type
Flight plan parsing failed, navigation log unavailable